createdAt,value
2019-01-08T00:00:09.332Z,0.70
2019-01-08T00:02:38.562Z,0.70
2019-01-08T00:05:09.438Z,0.70
2019-01-08T00:07:39.740Z,0.70
2019-01-08T00:10:10.087Z,0.70
2019-01-08T00:12:40.535Z,0.70
2019-01-08T00:15:09.371Z,0.60
2019-01-08T00:17:40.927Z,0.70
2019-01-08T00:20:09.625Z,0.60
2019-01-08T00:22:38.808Z,0.70
2019-01-08T00:25:09.073Z,0.70
2019-01-08T00:27:41.018Z,0.70
2019-01-08T00:30:09.772Z,0.70
2019-01-08T00:32:38.434Z,0.70
2019-01-08T00:35:07.712Z,0.60
2019-01-08T00:37:36.427Z,0.60
2019-01-08T00:40:07.061Z,0.70
2019-01-08T00:42:41.281Z,0.70
2019-01-08T00:45:09.903Z,0.70
2019-01-08T00:47:41.627Z,0.70
2019-01-08T00:50:10.413Z,0.60
2019-01-08T00:52:40.806Z,0.70
2019-01-08T00:55:10.592Z,0.70
2019-01-08T00:57:42.763Z,0.70
2019-01-08T01:00:12.037Z,0.70
2019-01-08T01:02:45.107Z,0.60
2019-01-08T01:05:13.721Z,0.60
2019-01-08T01:07:42.321Z,0.60
2019-01-08T01:10:12.719Z,0.60
2019-01-08T01:12:45.590Z,0.60
2019-01-08T01:15:14.207Z,0.60
2019-01-08T01:17:42.845Z,0.60
2019-01-08T01:20:11.433Z,0.60
2019-01-08T01:22:41.323Z,0.70
2019-01-08T01:25:10.702Z,0.60
2019-01-08T01:27:43.006Z,0.60
2019-01-08T01:30:12.375Z,0.60
2019-01-08T01:32:41.750Z,0.50
2019-01-08T01:35:11.357Z,0.50
2019-01-08T01:37:44.659Z,0.50
2019-01-08T01:40:20.202Z,0.50
2019-01-08T01:42:49.387Z,0.50
2019-01-08T01:45:20.241Z,0.50
2019-01-08T01:47:51.515Z,0.40
2019-01-08T01:50:31.611Z,0.40
2019-01-08T01:55:54.438Z,0.40
2019-01-08T01:58:27.470Z,0.40
2019-01-08T02:00:57.650Z,0.40
2019-01-08T02:03:26.437Z,0.40
2019-01-08T02:06:02.776Z,0.40
2019-01-08T02:08:32.600Z,0.40
2019-01-08T02:14:22.417Z,0.40
2019-01-08T02:23:29.928Z,0.40
2019-01-08T02:26:01.092Z,0.40
2019-01-08T02:28:51.846Z,0.40
2019-01-08T02:31:22.231Z,0.40
2019-01-08T02:33:53.670Z,0.50
2019-01-08T02:36:23.676Z,0.50
2019-01-08T02:38:56.708Z,0.50
2019-01-08T02:41:33.516Z,0.50
2019-01-08T02:47:18.197Z,0.50
2019-01-08T02:49:46.897Z,0.50
2019-01-08T03:05:37.080Z,0.60
2019-01-08T03:08:09.763Z,0.60
2019-01-08T03:10:41.595Z,0.60
2019-01-08T03:16:12.637Z,0.60
2019-01-08T03:18:41.559Z,0.60
2019-01-08T03:21:12.641Z,0.60
2019-01-08T03:23:45.480Z,0.60
2019-01-08T03:26:14.208Z,0.60
2019-01-08T03:31:41.853Z,0.60
2019-01-08T03:39:57.745Z,0.60
2019-01-08T03:42:34.659Z,0.60
2019-01-08T03:50:58.794Z,0.60
2019-01-08T03:53:27.478Z,0.60
2019-01-08T03:59:23.788Z,0.60
2019-01-08T04:01:52.827Z,0.60
2019-01-08T04:04:22.498Z,0.60
2019-01-08T04:06:51.264Z,0.60
2019-01-08T04:09:20.074Z,0.60
2019-01-08T04:11:48.814Z,0.60
2019-01-08T04:14:19.097Z,0.60
2019-01-08T04:16:49.492Z,0.60
2019-01-08T04:19:18.136Z,0.60
2019-01-08T04:21:48.423Z,0.60
2019-01-08T04:24:17.175Z,0.60
2019-01-08T04:26:47.752Z,0.60
2019-01-08T04:29:19.013Z,0.50
2019-01-08T04:31:50.916Z,0.50
2019-01-08T04:44:10.847Z,0.50
2019-01-08T04:46:40.159Z,0.50
2019-01-08T04:49:09.064Z,0.60
2019-01-08T04:51:38.456Z,0.60
2019-01-08T04:54:07.209Z,0.60
2019-01-08T04:56:35.880Z,0.60
2019-01-08T04:59:18.849Z,0.60
2019-01-08T05:04:56.182Z,0.60
2019-01-08T05:11:14.960Z,0.60
2019-01-08T05:13:44.723Z,0.50
2019-01-08T05:16:15.101Z,0.60
2019-01-08T05:18:46.838Z,0.60
2019-01-08T05:21:16.373Z,0.60
2019-01-08T05:27:28.900Z,0.70
2019-01-08T05:30:08.015Z,0.70
2019-01-08T05:32:38.421Z,0.70
2019-01-08T05:35:07.753Z,0.70
2019-01-08T05:37:36.482Z,0.70
2019-01-08T05:40:07.922Z,0.70
2019-01-08T05:42:38.042Z,0.70
2019-01-08T05:45:06.683Z,0.70
2019-01-08T05:47:43.135Z,0.70
2019-01-08T05:50:15.102Z,0.70
2019-01-08T05:52:43.731Z,0.80
2019-01-08T05:55:12.358Z,0.80
2019-01-08T05:58:10.784Z,0.80
2019-01-08T06:03:43.800Z,0.80
2019-01-08T06:06:13.387Z,0.80
2019-01-08T06:11:35.695Z,0.90
2019-01-08T06:14:04.378Z,0.90
2019-01-08T06:16:34.193Z,0.90
2019-01-08T06:19:08.212Z,0.90
2019-01-08T06:21:40.282Z,0.90
2019-01-08T06:24:09.961Z,0.90
2019-01-08T06:26:51.529Z,0.90
2019-01-08T06:29:22.709Z,0.90
2019-01-08T06:31:53.312Z,0.90
2019-01-08T06:34:32.444Z,0.90
2019-01-08T06:37:00.982Z,0.90
2019-01-08T06:39:29.623Z,0.90
2019-01-08T06:42:01.146Z,0.90
2019-01-08T06:45:51.240Z,0.90
2019-01-08T06:50:56.260Z,0.90
2019-01-08T06:53:32.200Z,0.90
2019-01-08T06:59:11.232Z,0.90
2019-01-08T07:01:40.331Z,0.90
2019-01-08T07:04:08.955Z,0.90
2019-01-08T07:06:37.537Z,0.90
2019-01-08T07:09:07.314Z,0.90
2019-01-08T07:11:35.895Z,0.90
2019-01-08T07:14:04.627Z,0.90
2019-01-08T07:16:33.128Z,0.90
2019-01-08T07:19:08.835Z,0.90
2019-01-08T07:21:37.465Z,0.90
2019-01-08T07:24:06.059Z,1.00
2019-01-08T07:26:36.176Z,1.00
2019-01-08T07:29:06.479Z,1.00
2019-01-08T07:31:36.736Z,1.00
2019-01-08T07:34:05.905Z,1.00
2019-01-08T07:36:34.488Z,0.90
2019-01-08T07:39:05.043Z,0.90
2019-01-08T07:41:35.367Z,0.90
2019-01-08T07:44:04.140Z,0.90
2019-01-08T07:46:35.439Z,0.90
2019-01-08T07:49:04.135Z,0.90
2019-01-08T07:51:35.508Z,0.90
2019-01-08T07:54:04.044Z,1.00
2019-01-08T07:56:32.624Z,1.00
2019-01-08T07:59:01.236Z,1.00
2019-01-08T08:01:32.605Z,1.00
2019-01-08T08:04:03.607Z,1.00
2019-01-08T08:06:34.382Z,1.10
2019-01-08T08:09:03.626Z,1.10
2019-01-08T08:11:32.183Z,1.10
2019-01-08T08:14:00.778Z,1.10
2019-01-08T08:16:30.787Z,1.10
2019-01-08T08:19:01.290Z,1.20
2019-01-08T08:21:32.809Z,1.20
2019-01-08T08:24:02.014Z,1.20
2019-01-08T08:26:30.673Z,1.20
2019-01-08T08:28:59.236Z,1.20
2019-01-08T08:31:29.400Z,1.20
2019-01-08T08:34:02.088Z,1.20
2019-01-08T08:36:30.936Z,1.30
2019-01-08T08:38:59.524Z,1.30
2019-01-08T08:41:28.732Z,1.30
2019-01-08T08:43:57.259Z,1.30
2019-01-08T08:46:28.297Z,1.40
2019-01-08T08:48:56.847Z,1.40
2019-01-08T08:51:27.088Z,1.40
2019-01-08T08:53:57.045Z,1.40
2019-01-08T08:56:26.644Z,1.40
2019-01-08T08:58:59.325Z,1.40
2019-01-08T09:01:28.026Z,1.30
2019-01-08T09:03:58.155Z,1.40
2019-01-08T09:06:28.297Z,1.30
2019-01-08T09:08:56.927Z,1.30
2019-01-08T09:11:25.728Z,1.40
2019-01-08T09:13:56.592Z,1.40
2019-01-08T09:16:26.756Z,1.40
2019-01-08T09:18:55.564Z,1.40
2019-01-08T09:21:26.160Z,1.50
2019-01-08T09:23:57.598Z,1.50
2019-01-08T09:26:28.242Z,1.50
2019-01-08T09:28:57.775Z,1.60
2019-01-08T09:31:27.316Z,1.70
2019-01-08T09:33:58.544Z,1.70
2019-01-08T09:36:27.076Z,1.70
2019-01-08T09:38:55.851Z,1.80
2019-01-08T09:41:25.020Z,1.80
2019-01-08T09:43:53.618Z,1.80
2019-01-08T09:46:22.128Z,1.90
2019-01-08T09:48:50.605Z,2.00
2019-01-08T09:51:19.206Z,2.10
2019-01-08T09:53:47.683Z,2.10
2019-01-08T09:56:16.225Z,2.30
2019-01-08T09:58:44.818Z,2.30
2019-01-08T10:01:13.305Z,2.50
2019-01-08T10:03:41.794Z,2.80
2019-01-08T10:06:10.291Z,2.90
2019-01-08T10:08:38.860Z,3.00
2019-01-08T10:11:07.485Z,2.90
2019-01-08T10:13:37.656Z,2.80
2019-01-08T10:16:06.203Z,2.70
2019-01-08T10:18:34.722Z,2.60
2019-01-08T10:21:05.586Z,2.50
2019-01-08T10:23:34.242Z,2.50
2019-01-08T10:26:02.820Z,2.50
2019-01-08T10:28:31.359Z,2.60
2019-01-08T10:30:59.862Z,2.50
2019-01-08T10:33:30.019Z,2.50
2019-01-08T10:35:58.742Z,2.40
2019-01-08T10:38:28.730Z,2.40
2019-01-08T10:40:57.228Z,2.50
2019-01-08T10:43:25.722Z,2.60
2019-01-08T10:45:54.261Z,2.60
2019-01-08T10:48:22.832Z,2.70
2019-01-08T10:50:51.412Z,2.80
2019-01-08T10:53:19.991Z,2.80
2019-01-08T10:55:48.478Z,2.60
2019-01-08T10:58:16.968Z,2.70
2019-01-08T11:00:45.513Z,2.80
2019-01-08T11:03:13.965Z,2.80
2019-01-08T11:05:42.457Z,2.80
2019-01-08T11:08:10.955Z,2.80
2019-01-08T11:10:39.458Z,2.70
2019-01-08T11:13:07.948Z,2.60
2019-01-08T11:15:36.497Z,2.50
2019-01-08T11:18:05.074Z,2.60
2019-01-08T11:20:33.568Z,2.70
2019-01-08T11:23:02.113Z,2.70
2019-01-08T11:25:32.732Z,2.60
2019-01-08T11:28:01.330Z,2.60
2019-01-08T11:30:29.882Z,2.70
2019-01-08T11:32:58.403Z,2.60
2019-01-08T11:35:26.948Z,2.60
2019-01-08T11:37:55.429Z,2.70
2019-01-08T11:40:23.935Z,2.80
2019-01-08T11:42:52.455Z,2.70
2019-01-08T11:45:20.922Z,2.70
2019-01-08T11:47:50.799Z,2.50
2019-01-08T11:50:21.030Z,2.40
2019-01-08T11:52:49.613Z,2.30
2019-01-08T11:55:18.151Z,2.20
2019-01-08T11:57:46.648Z,2.30
2019-01-08T12:00:16.299Z,2.50
2019-01-08T12:02:47.915Z,2.70
2019-01-08T12:05:14.963Z,2.90
2019-01-08T12:07:43.607Z,2.80
2019-01-08T12:10:12.217Z,2.60
2019-01-08T12:12:40.769Z,2.60
2019-01-08T12:15:09.388Z,3.00
2019-01-08T12:17:37.935Z,3.10
2019-01-08T12:20:09.814Z,3.10
2019-01-08T12:22:41.242Z,3.00
2019-01-08T12:25:09.834Z,2.80
2019-01-08T12:27:38.352Z,2.60
2019-01-08T12:30:09.294Z,2.70
2019-01-08T12:32:37.810Z,2.90
2019-01-08T12:35:06.265Z,3.10
2019-01-08T12:37:34.766Z,3.00
2019-01-08T12:40:03.621Z,2.80
2019-01-08T12:42:32.104Z,2.80
2019-01-08T12:45:00.652Z,2.90
2019-01-08T12:47:29.202Z,3.20
2019-01-08T12:49:57.783Z,3.20
2019-01-08T12:52:26.371Z,3.20
2019-01-08T12:54:54.857Z,3.20
2019-01-08T12:57:23.402Z,2.90
2019-01-08T12:59:52.405Z,2.90
2019-01-08T13:02:20.902Z,3.00
2019-01-08T13:04:49.359Z,3.50
2019-01-08T13:07:17.858Z,3.70
2019-01-08T13:09:46.369Z,3.90
2019-01-08T13:12:16.481Z,3.60
2019-01-08T13:14:44.970Z,3.50
2019-01-08T13:17:15.475Z,3.30
2019-01-08T13:19:43.977Z,3.10
2019-01-08T13:22:12.444Z,3.20
2019-01-08T13:24:41.061Z,3.60
2019-01-08T13:27:09.664Z,3.80
2019-01-08T13:29:38.373Z,4.30
2019-01-08T13:32:06.941Z,4.40
2019-01-08T13:34:35.410Z,4.60
2019-01-08T13:37:03.983Z,4.90
2019-01-08T13:39:32.459Z,5.30
2019-01-08T13:42:01.052Z,5.30
2019-01-08T13:44:29.517Z,5.30
2019-01-08T13:46:57.964Z,5.50
2019-01-08T13:49:26.500Z,5.40
2019-01-08T13:51:55.064Z,4.80
2019-01-08T13:54:25.547Z,4.10
2019-01-08T13:56:54.420Z,3.60
2019-01-08T13:59:23.069Z,3.30
2019-01-08T14:01:52.131Z,3.00
2019-01-08T14:04:21.068Z,3.00
2019-01-08T14:06:49.959Z,2.80
2019-01-08T14:09:18.937Z,2.60
2019-01-08T14:11:48.067Z,2.50
2019-01-08T14:14:17.032Z,2.50
2019-01-08T14:16:48.160Z,2.60
2019-01-08T14:19:17.276Z,2.70
2019-01-08T14:21:46.272Z,2.80
2019-01-08T14:24:15.096Z,3.00
2019-01-08T14:26:43.627Z,3.00
2019-01-08T14:29:12.643Z,2.80
2019-01-08T14:31:41.725Z,2.80
2019-01-08T14:34:10.425Z,2.70
2019-01-08T14:36:39.453Z,2.90
2019-01-08T14:39:08.520Z,2.90
2019-01-08T14:41:37.234Z,2.80
2019-01-08T14:44:06.257Z,2.70
2019-01-08T14:46:35.213Z,2.60
2019-01-08T14:49:04.147Z,2.50
2019-01-08T14:51:33.371Z,2.40
2019-01-08T14:54:02.419Z,2.40
2019-01-08T14:56:36.040Z,2.40
2019-01-08T14:59:05.719Z,2.40
2019-01-08T15:01:37.353Z,2.30
2019-01-08T15:04:06.602Z,2.30
2019-01-08T15:06:35.720Z,2.30
2019-01-08T15:09:06.451Z,2.30
2019-01-08T15:11:35.409Z,2.30
2019-01-08T15:14:04.270Z,2.30
2019-01-08T15:16:32.854Z,2.30
2019-01-08T15:19:02.458Z,2.30
2019-01-08T15:21:31.463Z,2.30
2019-01-08T15:24:00.059Z,2.30
2019-01-08T15:26:29.522Z,2.30
2019-01-08T15:28:58.940Z,2.20
2019-01-08T15:31:27.674Z,2.20
2019-01-08T15:33:56.775Z,2.20
2019-01-08T15:36:28.257Z,2.20
2019-01-08T15:38:57.294Z,2.20
2019-01-08T15:41:25.946Z,2.20
2019-01-08T15:43:56.508Z,2.10
2019-01-08T15:46:25.373Z,2.10
2019-01-08T15:48:56.100Z,2.00
2019-01-08T15:51:28.483Z,2.00
2019-01-08T15:53:58.262Z,2.00
2019-01-08T15:56:27.109Z,2.00
2019-01-08T15:58:56.445Z,2.00
2019-01-08T16:01:28.731Z,2.00
2019-01-08T16:03:59.521Z,2.00
2019-01-08T16:06:28.355Z,2.00
2019-01-08T16:09:00.261Z,1.90
2019-01-08T16:11:29.338Z,1.90
2019-01-08T16:13:57.936Z,2.00
2019-01-08T16:16:29.494Z,2.00
2019-01-08T16:18:58.555Z,1.90
2019-01-08T16:21:27.740Z,1.90
2019-01-08T16:23:59.708Z,1.90
2019-01-08T16:26:30.123Z,1.90
2019-01-08T16:28:59.071Z,1.90
2019-01-08T16:31:29.166Z,2.00
2019-01-08T16:33:58.017Z,2.00
2019-01-08T16:36:27.098Z,2.00
2019-01-08T16:38:56.529Z,2.00
2019-01-08T16:41:25.444Z,2.00
2019-01-08T16:43:54.274Z,2.00
2019-01-08T16:46:26.468Z,1.90
2019-01-08T16:49:00.797Z,1.90
2019-01-08T16:51:30.172Z,1.80
2019-01-08T16:54:01.876Z,1.70
2019-01-08T16:56:32.963Z,1.70
2019-01-08T16:59:03.251Z,1.60
2019-01-08T17:01:36.543Z,1.60
2019-01-08T17:04:06.452Z,1.60
2019-01-08T17:06:35.319Z,1.60
2019-01-08T17:09:08.898Z,1.60
2019-01-08T17:11:40.687Z,1.50
2019-01-08T17:14:09.544Z,1.60
2019-01-08T17:16:38.526Z,1.60
2019-01-08T17:19:09.976Z,1.50
2019-01-08T17:21:38.925Z,1.50
2019-01-08T17:24:08.125Z,1.40
2019-01-08T17:26:37.364Z,1.40
2019-01-08T17:29:06.357Z,1.30
2019-01-08T17:31:36.388Z,1.30
2019-01-08T17:34:05.885Z,1.40
2019-01-08T17:36:36.687Z,1.40
2019-01-08T17:39:06.566Z,1.40
2019-01-08T17:41:35.668Z,1.40
2019-01-08T17:44:04.796Z,1.40
2019-01-08T17:46:35.710Z,1.40
2019-01-08T17:49:08.803Z,1.40
2019-01-08T17:51:38.602Z,1.40
2019-01-08T17:54:07.415Z,1.40
2019-01-08T17:56:36.762Z,1.50
2019-01-08T17:59:08.657Z,1.40
2019-01-08T18:01:39.585Z,1.50
2019-01-08T18:04:09.055Z,1.50
2019-01-08T18:06:41.147Z,1.50
2019-01-08T18:09:12.146Z,1.50
2019-01-08T18:11:42.197Z,1.40
2019-01-08T18:14:14.347Z,1.40
2019-01-08T18:16:43.324Z,1.30
2019-01-08T18:20:05.449Z,1.30
2019-01-08T18:22:34.346Z,1.30
2019-01-08T18:25:08.139Z,1.30
2019-01-08T18:27:38.702Z,1.30
2019-01-08T18:30:10.593Z,1.30
2019-01-08T18:32:39.895Z,1.30
2019-01-08T18:35:09.019Z,1.40
2019-01-08T18:37:39.988Z,1.40
2019-01-08T18:40:09.134Z,1.40
2019-01-08T18:42:39.688Z,1.40
2019-01-08T18:45:08.741Z,1.40
2019-01-08T18:47:37.514Z,1.40
2019-01-08T18:50:06.440Z,1.40
2019-01-08T18:52:35.442Z,1.40
2019-01-08T18:55:04.539Z,1.40
2019-01-08T18:57:33.670Z,1.50
2019-01-08T19:00:04.132Z,1.50
2019-01-08T19:02:33.294Z,1.50
2019-01-08T19:05:02.598Z,1.50
2019-01-08T19:07:33.491Z,1.50
2019-01-08T19:10:08.118Z,1.50
2019-01-08T19:12:37.880Z,1.50
2019-01-08T19:15:07.603Z,1.30
2019-01-08T19:17:39.882Z,1.30
2019-01-08T19:20:10.337Z,1.20
2019-01-08T19:22:39.588Z,1.20
2019-01-08T19:25:09.911Z,1.20
2019-01-08T19:27:38.764Z,1.30
2019-01-08T19:30:11.323Z,1.30
2019-01-08T19:32:41.876Z,1.40
2019-01-08T19:35:14.880Z,1.40
2019-01-08T19:37:43.843Z,1.40
2019-01-08T19:40:24.775Z,1.40
2019-01-08T19:42:56.496Z,1.40
2019-01-08T19:45:25.159Z,1.40
2019-01-08T19:48:01.015Z,1.40
2019-01-08T19:50:31.708Z,1.30
2019-01-08T19:53:02.896Z,1.10
2019-01-08T19:55:31.606Z,1.00
2019-01-08T19:58:01.603Z,0.90
2019-01-08T20:00:30.717Z,0.90
2019-01-08T20:03:01.586Z,0.90
2019-01-08T20:05:35.599Z,0.90
2019-01-08T20:08:10.372Z,0.90
2019-01-08T20:10:39.536Z,0.90
2019-01-08T20:13:08.815Z,0.90
2019-01-08T20:15:37.871Z,1.00
2019-01-08T20:18:06.878Z,1.00
2019-01-08T20:20:35.707Z,1.00
2019-01-08T20:23:09.832Z,1.00
2019-01-08T20:25:38.705Z,1.10
2019-01-08T20:28:07.731Z,1.10
2019-01-08T20:30:38.445Z,1.10
2019-01-08T20:33:07.440Z,1.10
2019-01-08T20:35:37.867Z,1.20
2019-01-08T20:38:09.743Z,1.20
2019-01-08T20:40:39.077Z,1.20
2019-01-08T20:43:08.279Z,1.20
2019-01-08T20:45:37.435Z,1.20
2019-01-08T20:48:06.557Z,1.20
2019-01-08T20:50:41.574Z,1.20
2019-01-08T20:53:12.913Z,1.20
2019-01-08T20:55:44.834Z,1.20
2019-01-08T20:58:16.434Z,1.30
2019-01-08T21:00:46.462Z,1.30
2019-01-08T21:03:16.414Z,1.30
2019-01-08T21:05:49.967Z,1.30
2019-01-08T21:08:19.051Z,1.30
2019-01-08T21:10:49.041Z,1.20
2019-01-08T21:13:21.385Z,1.20
2019-01-08T21:15:51.767Z,1.20
2019-01-08T21:18:26.472Z,1.30
2019-01-08T21:20:57.175Z,1.30
2019-01-08T21:23:27.397Z,1.30
2019-01-08T21:25:56.374Z,1.30
2019-01-08T21:28:25.369Z,1.30
2019-01-08T21:30:58.992Z,1.30
2019-01-08T21:33:30.797Z,1.30
2019-01-08T21:36:02.318Z,1.30
2019-01-08T21:38:33.448Z,1.40
2019-01-08T21:41:04.116Z,1.40
2019-01-08T21:43:33.393Z,1.30
2019-01-08T21:46:03.581Z,1.20
2019-01-08T21:48:33.541Z,1.20
2019-01-08T21:51:03.945Z,1.10
2019-01-08T21:53:37.904Z,1.00
2019-01-08T21:56:14.689Z,1.00
2019-01-08T21:58:48.116Z,0.90
2019-01-08T22:01:17.264Z,0.90
2019-01-08T22:04:09.135Z,0.90
2019-01-08T22:06:22.965Z,0.90
2019-01-08T22:08:54.643Z,0.90
2019-01-08T22:11:23.991Z,0.90
2019-01-08T22:13:53.250Z,1.00
2019-01-08T22:16:21.828Z,1.00
2019-01-08T22:18:51.388Z,1.00
2019-01-08T22:21:19.944Z,1.00
2019-01-08T22:23:48.710Z,1.00
2019-01-08T22:26:17.988Z,1.00
2019-01-08T22:28:46.632Z,1.00
2019-01-08T22:31:15.132Z,0.90
2019-01-08T22:33:43.666Z,0.90
2019-01-08T22:36:12.257Z,0.90
2019-01-08T22:38:40.865Z,0.90
2019-01-08T22:41:09.853Z,0.90
2019-01-08T22:43:38.687Z,0.90
2019-01-08T22:46:07.429Z,0.90
2019-01-08T22:48:37.762Z,0.90
2019-01-08T22:51:06.429Z,0.90
2019-01-08T22:53:37.452Z,0.90
2019-01-08T22:56:06.129Z,0.90
2019-01-08T22:58:34.711Z,0.90
2019-01-08T23:01:10.843Z,0.90
2019-01-08T23:03:39.497Z,0.90
2019-01-08T23:06:10.602Z,0.80
2019-01-08T23:08:39.222Z,0.80
2019-01-08T23:11:12.229Z,0.80
2019-01-08T23:13:40.987Z,0.70
2019-01-08T23:16:13.692Z,0.70
2019-01-08T23:18:42.643Z,0.70
2019-01-08T23:27:59.972Z,0.60
2019-01-08T23:30:30.211Z,0.60
2019-01-08T23:32:58.785Z,0.60
2019-01-08T23:35:29.151Z,0.60
2019-01-08T23:37:57.702Z,0.60
2019-01-08T23:40:26.386Z,0.60
2019-01-08T23:42:55.005Z,0.70
2019-01-08T23:45:26.291Z,0.70
2019-01-08T23:48:05.592Z,0.70
2019-01-08T23:50:34.380Z,0.70
2019-01-08T23:53:07.505Z,0.70
2019-01-08T23:55:39.748Z,0.70
2019-01-08T23:58:18.807Z,0.70
